sensor_id;sensor_type;location;lat;lon;timestamp;P1;durP1;ratioP1;P2;durP2;ratioP2
26536;SDS011;14204;51.262;5.488;2022-09-03T00:02:27;3.50;;;2.20;;
26536;SDS011;14204;51.262;5.488;2022-09-03T00:05:04;3.50;;;2.30;;
26536;SDS011;14204;51.262;5.488;2022-09-03T00:10:36;2.65;;;2.20;;
26536;SDS011;14204;51.262;5.488;2022-09-03T00:13:03;6.00;;;2.30;;
26536;SDS011;14204;51.262;5.488;2022-09-03T00:15:31;5.60;;;2.60;;
26536;SDS011;14204;51.262;5.488;2022-09-03T00:18:01;6.63;;;2.40;;
26536;SDS011;14204;51.262;5.488;2022-09-03T00:22:58;3.70;;;2.30;;
26536;SDS011;14204;51.262;5.488;2022-09-03T00:28:06;6.88;;;2.20;;
26536;SDS011;14204;51.262;5.488;2022-09-03T00:30:40;3.13;;;2.17;;
26536;SDS011;14204;51.262;5.488;2022-09-03T00:33:12;4.85;;;2.45;;
26536;SDS011;14204;51.262;5.488;2022-09-03T00:38:19;4.75;;;2.60;;
26536;SDS011;14204;51.262;5.488;2022-09-03T00:41:00;3.13;;;2.40;;
26536;SDS011;14204;51.262;5.488;2022-09-03T01:01:00;6.10;;;2.42;;
26536;SDS011;14204;51.262;5.488;2022-09-03T01:06:48;4.05;;;3.17;;
26536;SDS011;14204;51.262;5.488;2022-09-03T01:20:18;7.03;;;2.85;;
26536;SDS011;14204;51.262;5.488;2022-09-03T01:22:56;2.78;;;2.42;;
26536;SDS011;14204;51.262;5.488;2022-09-03T01:31:44;2.65;;;2.30;;
26536;SDS011;14204;51.262;5.488;2022-09-03T01:50:35;4.80;;;2.42;;
26536;SDS011;14204;51.262;5.488;2022-09-03T01:53:09;4.93;;;2.63;;
26536;SDS011;14204;51.262;5.488;2022-09-03T01:59:01;4.03;;;2.20;;
26536;SDS011;14204;51.262;5.488;2022-09-03T02:01:44;5.32;;;2.20;;
26536;SDS011;14204;51.262;5.488;2022-09-03T02:04:21;4.85;;;2.70;;
26536;SDS011;14204;51.262;5.488;2022-09-03T02:06:51;7.00;;;2.90;;
26536;SDS011;14204;51.262;5.488;2022-09-03T02:09:20;3.28;;;2.45;;
26536;SDS011;14204;51.262;5.488;2022-09-03T02:11:49;7.25;;;2.85;;
26536;SDS011;14204;51.262;5.488;2022-09-03T02:14:21;4.47;;;2.78;;
26536;SDS011;14204;51.262;5.488;2022-09-03T02:16:47;4.25;;;2.58;;
26536;SDS011;14204;51.262;5.488;2022-09-03T02:19:14;7.32;;;2.70;;
26536;SDS011;14204;51.262;5.488;2022-09-03T02:21:44;2.88;;;2.47;;
26536;SDS011;14204;51.262;5.488;2022-09-03T02:24:14;4.45;;;2.92;;
26536;SDS011;14204;51.262;5.488;2022-09-03T02:26:40;4.45;;;2.80;;
26536;SDS011;14204;51.262;5.488;2022-09-03T02:29:05;3.72;;;2.60;;
26536;SDS011;14204;51.262;5.488;2022-09-03T02:31:31;8.68;;;2.85;;
26536;SDS011;14204;51.262;5.488;2022-09-03T02:33:57;9.98;;;3.00;;
26536;SDS011;14204;51.262;5.488;2022-09-03T02:36:24;3.80;;;2.63;;
26536;SDS011;14204;51.262;5.488;2022-09-03T02:39:03;8.55;;;2.88;;
26536;SDS011;14204;51.262;5.488;2022-09-03T02:41:29;4.65;;;2.95;;
26536;SDS011;14204;51.262;5.488;2022-09-03T02:44:01;3.58;;;2.30;;
26536;SDS011;14204;51.262;5.488;2022-09-03T02:46:40;4.00;;;2.58;;
26536;SDS011;14204;51.262;5.488;2022-09-03T02:49:08;4.63;;;2.60;;
26536;SDS011;14204;51.262;5.488;2022-09-03T02:51:37;5.38;;;2.70;;
26536;SDS011;14204;51.262;5.488;2022-09-03T02:54:04;7.82;;;3.08;;
26536;SDS011;14204;51.262;5.488;2022-09-03T02:56:30;4.30;;;2.40;;
26536;SDS011;14204;51.262;5.488;2022-09-03T02:58:56;7.53;;;3.17;;
26536;SDS011;14204;51.262;5.488;2022-09-03T03:01:22;4.97;;;2.45;;
26536;SDS011;14204;51.262;5.488;2022-09-03T03:03:48;9.38;;;2.80;;
26536;SDS011;14204;51.262;5.488;2022-09-03T03:06:14;5.70;;;2.83;;
26536;SDS011;14204;51.262;5.488;2022-09-03T03:08:39;4.60;;;3.05;;
26536;SDS011;14204;51.262;5.488;2022-09-03T03:11:05;4.15;;;2.63;;
26536;SDS011;14204;51.262;5.488;2022-09-03T03:13:31;4.90;;;2.80;;
26536;SDS011;14204;51.262;5.488;2022-09-03T03:15:58;3.10;;;2.70;;
26536;SDS011;14204;51.262;5.488;2022-09-03T03:18:26;2.97;;;2.58;;
26536;SDS011;14204;51.262;5.488;2022-09-03T03:20:52;3.13;;;2.53;;
26536;SDS011;14204;51.262;5.488;2022-09-03T03:23:19;5.38;;;3.00;;
26536;SDS011;14204;51.262;5.488;2022-09-03T03:25:44;3.95;;;2.75;;
26536;SDS011;14204;51.262;5.488;2022-09-03T03:28:10;3.42;;;2.45;;
26536;SDS011;14204;51.262;5.488;2022-09-03T03:30:37;3.85;;;2.92;;
26536;SDS011;14204;51.262;5.488;2022-09-03T03:33:04;3.88;;;2.45;;
26536;SDS011;14204;51.262;5.488;2022-09-03T03:35:30;7.25;;;2.90;;
26536;SDS011;14204;51.262;5.488;2022-09-03T03:37:57;5.50;;;3.17;;
26536;SDS011;14204;51.262;5.488;2022-09-03T03:40:23;4.97;;;2.90;;
26536;SDS011;14204;51.262;5.488;2022-09-03T03:42:49;5.43;;;2.72;;
26536;SDS011;14204;51.262;5.488;2022-09-03T03:45:14;7.38;;;2.70;;
26536;SDS011;14204;51.262;5.488;2022-09-03T03:47:41;4.00;;;2.65;;
26536;SDS011;14204;51.262;5.488;2022-09-03T03:50:07;7.30;;;2.72;;
26536;SDS011;14204;51.262;5.488;2022-09-03T03:52:33;3.70;;;2.88;;
26536;SDS011;14204;51.262;5.488;2022-09-03T03:54:59;5.78;;;2.80;;
26536;SDS011;14204;51.262;5.488;2022-09-03T03:57:24;4.20;;;2.80;;
26536;SDS011;14204;51.262;5.488;2022-09-03T03:59:53;3.38;;;3.00;;
26536;SDS011;14204;51.262;5.488;2022-09-03T04:02:19;5.18;;;3.10;;
26536;SDS011;14204;51.262;5.488;2022-09-03T04:04:45;5.50;;;3.35;;
26536;SDS011;14204;51.262;5.488;2022-09-03T04:07:11;4.90;;;2.80;;
26536;SDS011;14204;51.262;5.488;2022-09-03T04:09:36;4.28;;;3.05;;
26536;SDS011;14204;51.262;5.488;2022-09-03T04:12:02;5.05;;;3.30;;
26536;SDS011;14204;51.262;5.488;2022-09-03T04:14:32;4.72;;;2.60;;
26536;SDS011;14204;51.262;5.488;2022-09-03T04:16:59;3.17;;;2.97;;
26536;SDS011;14204;51.262;5.488;2022-09-03T04:19:25;5.47;;;3.00;;
26536;SDS011;14204;51.262;5.488;2022-09-03T04:21:53;3.60;;;3.05;;
26536;SDS011;14204;51.262;5.488;2022-09-03T04:24:19;6.07;;;3.05;;
26536;SDS011;14204;51.262;5.488;2022-09-03T04:26:44;7.07;;;2.92;;
26536;SDS011;14204;51.262;5.488;2022-09-03T04:29:11;6.72;;;2.83;;
26536;SDS011;14204;51.262;5.488;2022-09-03T04:31:37;5.47;;;2.90;;
26536;SDS011;14204;51.262;5.488;2022-09-03T04:34:03;6.15;;;3.20;;
26536;SDS011;14204;51.262;5.488;2022-09-03T04:36:32;3.35;;;2.88;;
26536;SDS011;14204;51.262;5.488;2022-09-03T04:38:59;5.10;;;2.80;;
26536;SDS011;14204;51.262;5.488;2022-09-03T04:41:28;4.05;;;3.22;;
26536;SDS011;14204;51.262;5.488;2022-09-03T04:43:56;3.97;;;2.88;;
26536;SDS011;14204;51.262;5.488;2022-09-03T04:46:24;5.30;;;3.15;;
26536;SDS011;14204;51.262;5.488;2022-09-03T04:48:53;7.68;;;2.72;;
26536;SDS011;14204;51.262;5.488;2022-09-03T04:51:20;4.07;;;2.65;;
26536;SDS011;14204;51.262;5.488;2022-09-03T04:53:53;4.25;;;2.60;;
26536;SDS011;14204;51.262;5.488;2022-09-03T04:56:22;8.40;;;3.17;;
26536;SDS011;14204;51.262;5.488;2022-09-03T04:58:56;9.40;;;3.15;;
26536;SDS011;14204;51.262;5.488;2022-09-03T05:01:23;7.25;;;3.50;;
26536;SDS011;14204;51.262;5.488;2022-09-03T05:03:51;14.82;;;4.00;;
26536;SDS011;14204;51.262;5.488;2022-09-03T05:06:18;14.10;;;4.15;;
26536;SDS011;14204;51.262;5.488;2022-09-03T05:08:47;10.98;;;3.33;;
26536;SDS011;14204;51.262;5.488;2022-09-03T05:11:13;16.52;;;3.97;;
26536;SDS011;14204;51.262;5.488;2022-09-03T05:13:40;15.25;;;3.63;;
26536;SDS011;14204;51.262;5.488;2022-09-03T05:16:07;17.13;;;3.80;;
26536;SDS011;14204;51.262;5.488;2022-09-03T05:18:35;21.27;;;4.20;;
26536;SDS011;14204;51.262;5.488;2022-09-03T05:21:02;16.33;;;3.75;;
26536;SDS011;14204;51.262;5.488;2022-09-03T05:23:29;23.42;;;4.00;;
26536;SDS011;14204;51.262;5.488;2022-09-03T05:25:59;21.58;;;4.25;;
26536;SDS011;14204;51.262;5.488;2022-09-03T05:28:27;20.55;;;4.38;;
26536;SDS011;14204;51.262;5.488;2022-09-03T05:31:00;14.38;;;3.30;;
26536;SDS011;14204;51.262;5.488;2022-09-03T05:33:37;19.88;;;4.03;;
26536;SDS011;14204;51.262;5.488;2022-09-03T05:36:05;19.63;;;4.10;;
26536;SDS011;14204;51.262;5.488;2022-09-03T05:38:32;18.27;;;3.67;;
26536;SDS011;14204;51.262;5.488;2022-09-03T05:41:02;16.05;;;3.70;;
26536;SDS011;14204;51.262;5.488;2022-09-03T05:43:30;20.05;;;4.05;;
26536;SDS011;14204;51.262;5.488;2022-09-03T05:45:57;10.80;;;3.90;;
26536;SDS011;14204;51.262;5.488;2022-09-03T05:48:44;18.17;;;3.85;;
26536;SDS011;14204;51.262;5.488;2022-09-03T05:51:10;12.45;;;3.33;;
26536;SDS011;14204;51.262;5.488;2022-09-03T05:53:41;20.75;;;3.60;;
26536;SDS011;14204;51.262;5.488;2022-09-03T05:56:12;13.75;;;3.40;;
26536;SDS011;14204;51.262;5.488;2022-09-03T05:58:42;13.18;;;3.33;;
26536;SDS011;14204;51.262;5.488;2022-09-03T06:03:59;10.50;;;3.92;;
26536;SDS011;14204;51.262;5.488;2022-09-03T06:06:30;14.43;;;3.78;;
26536;SDS011;14204;51.262;5.488;2022-09-03T06:08:58;13.02;;;4.05;;
26536;SDS011;14204;51.262;5.488;2022-09-03T06:11:26;12.57;;;3.30;;
26536;SDS011;14204;51.262;5.488;2022-09-03T06:13:56;9.55;;;3.45;;
26536;SDS011;14204;51.262;5.488;2022-09-03T06:16:25;14.60;;;4.18;;
26536;SDS011;14204;51.262;5.488;2022-09-03T06:18:51;12.55;;;3.63;;
26536;SDS011;14204;51.262;5.488;2022-09-03T06:21:18;11.13;;;2.55;;
26536;SDS011;14204;51.262;5.488;2022-09-03T06:23:47;8.55;;;3.00;;
26536;SDS011;14204;51.262;5.488;2022-09-03T06:26:15;9.73;;;2.83;;
26536;SDS011;14204;51.262;5.488;2022-09-03T06:28:42;9.25;;;3.15;;
26536;SDS011;14204;51.262;5.488;2022-09-03T06:31:11;5.75;;;3.30;;
26536;SDS011;14204;51.262;5.488;2022-09-03T06:33:38;9.65;;;3.22;;
26536;SDS011;14204;51.262;5.488;2022-09-03T06:36:07;10.95;;;3.25;;
26536;SDS011;14204;51.262;5.488;2022-09-03T06:38:39;5.93;;;2.30;;
26536;SDS011;14204;51.262;5.488;2022-09-03T06:41:12;9.15;;;2.95;;
26536;SDS011;14204;51.262;5.488;2022-09-03T06:43:50;8.55;;;2.60;;
26536;SDS011;14204;51.262;5.488;2022-09-03T06:46:18;8.23;;;2.90;;
26536;SDS011;14204;51.262;5.488;2022-09-03T06:48:45;5.28;;;2.42;;
26536;SDS011;14204;51.262;5.488;2022-09-03T06:51:12;8.52;;;2.35;;
26536;SDS011;14204;51.262;5.488;2022-09-03T06:53:47;6.05;;;2.08;;
26536;SDS011;14204;51.262;5.488;2022-09-03T06:56:18;4.53;;;2.70;;
26536;SDS011;14204;51.262;5.488;2022-09-03T06:58:51;5.25;;;2.42;;
26536;SDS011;14204;51.262;5.488;2022-09-03T07:01:24;4.47;;;2.15;;
26536;SDS011;14204;51.262;5.488;2022-09-03T07:04:01;4.68;;;2.05;;
26536;SDS011;14204;51.262;5.488;2022-09-03T07:06:30;4.00;;;2.25;;
26536;SDS011;14204;51.262;5.488;2022-09-03T07:08:57;11.63;;;2.85;;
26536;SDS011;14204;51.262;5.488;2022-09-03T07:11:27;6.10;;;1.90;;
26536;SDS011;14204;51.262;5.488;2022-09-03T07:13:55;5.35;;;2.15;;
26536;SDS011;14204;51.262;5.488;2022-09-03T07:16:23;7.63;;;1.98;;
26536;SDS011;14204;51.262;5.488;2022-09-03T07:18:50;5.07;;;2.00;;
26536;SDS011;14204;51.262;5.488;2022-09-03T07:21:20;4.18;;;2.08;;
26536;SDS011;14204;51.262;5.488;2022-09-03T07:23:48;3.33;;;1.90;;
26536;SDS011;14204;51.262;5.488;2022-09-03T07:26:19;4.13;;;1.50;;
26536;SDS011;14204;51.262;5.488;2022-09-03T07:28:56;3.88;;;1.55;;
26536;SDS011;14204;51.262;5.488;2022-09-03T07:31:26;5.57;;;1.92;;
26536;SDS011;14204;51.262;5.488;2022-09-03T07:33:57;6.53;;;1.52;;
26536;SDS011;14204;51.262;5.488;2022-09-03T07:36:25;3.72;;;2.08;;
26536;SDS011;14204;51.262;5.488;2022-09-03T07:38:55;3.40;;;1.73;;
26536;SDS011;14204;51.262;5.488;2022-09-03T07:41:22;2.70;;;1.92;;
26536;SDS011;14204;51.262;5.488;2022-09-03T07:43:49;2.15;;;1.55;;
26536;SDS011;14204;51.262;5.488;2022-09-03T07:46:16;2.55;;;1.85;;
26536;SDS011;14204;51.262;5.488;2022-09-03T07:48:48;4.10;;;1.70;;
26536;SDS011;14204;51.262;5.488;2022-09-03T07:51:18;4.78;;;1.80;;
26536;SDS011;14204;51.262;5.488;2022-09-03T07:53:45;4.80;;;1.70;;
26536;SDS011;14204;51.262;5.488;2022-09-03T07:56:12;2.67;;;1.50;;
26536;SDS011;14204;51.262;5.488;2022-09-03T07:58:38;2.58;;;1.80;;
26536;SDS011;14204;51.262;5.488;2022-09-03T08:01:11;3.05;;;1.42;;
26536;SDS011;14204;51.262;5.488;2022-09-03T08:03:46;1.70;;;1.30;;
26536;SDS011;14204;51.262;5.488;2022-09-03T08:06:13;1.90;;;1.33;;
26536;SDS011;14204;51.262;5.488;2022-09-03T08:08:41;2.70;;;1.42;;
26536;SDS011;14204;51.262;5.488;2022-09-03T08:11:10;5.70;;;1.90;;
26536;SDS011;14204;51.262;5.488;2022-09-03T08:13:40;3.72;;;1.65;;
26536;SDS011;14204;51.262;5.488;2022-09-03T08:16:09;3.35;;;1.40;;
26536;SDS011;14204;51.262;5.488;2022-09-03T08:18:36;1.80;;;1.27;;
26536;SDS011;14204;51.262;5.488;2022-09-03T08:21:04;2.83;;;1.60;;
26536;SDS011;14204;51.262;5.488;2022-09-03T08:23:31;1.77;;;1.25;;
26536;SDS011;14204;51.262;5.488;2022-09-03T08:25:59;6.72;;;2.00;;
26536;SDS011;14204;51.262;5.488;2022-09-03T08:28:26;5.95;;;1.95;;
26536;SDS011;14204;51.262;5.488;2022-09-03T08:30:52;3.28;;;1.58;;
26536;SDS011;14204;51.262;5.488;2022-09-03T08:33:18;5.65;;;1.75;;
26536;SDS011;14204;51.262;5.488;2022-09-03T08:36:04;3.88;;;1.88;;
26536;SDS011;14204;51.262;5.488;2022-09-03T08:38:33;4.03;;;1.60;;
26536;SDS011;14204;51.262;5.488;2022-09-03T08:41:03;4.32;;;1.35;;
26536;SDS011;14204;51.262;5.488;2022-09-03T08:43:30;5.60;;;1.40;;
26536;SDS011;14204;51.262;5.488;2022-09-03T08:46:02;4.35;;;1.60;;
26536;SDS011;14204;51.262;5.488;2022-09-03T08:48:28;5.65;;;2.15;;
26536;SDS011;14204;51.262;5.488;2022-09-03T08:50:55;3.05;;;1.60;;
26536;SDS011;14204;51.262;5.488;2022-09-03T08:53:40;5.18;;;1.52;;
26536;SDS011;14204;51.262;5.488;2022-09-03T08:56:26;2.88;;;1.55;;
26536;SDS011;14204;51.262;5.488;2022-09-03T08:58:54;2.92;;;1.70;;
26536;SDS011;14204;51.262;5.488;2022-09-03T09:21:24;5.10;;;1.60;;
26536;SDS011;14204;51.262;5.488;2022-09-03T09:23:54;5.35;;;1.60;;
26536;SDS011;14204;51.262;5.488;2022-09-03T09:26:41;2.80;;;1.52;;
26536;SDS011;14204;51.262;5.488;2022-09-03T09:29:08;2.58;;;1.40;;
26536;SDS011;14204;51.262;5.488;2022-09-03T09:31:36;2.17;;;1.70;;
26536;SDS011;14204;51.262;5.488;2022-09-03T09:34:04;2.75;;;1.92;;
26536;SDS011;14204;51.262;5.488;2022-09-03T09:36:31;4.63;;;2.05;;
26536;SDS011;14204;51.262;5.488;2022-09-03T09:39:08;3.20;;;1.60;;
26536;SDS011;14204;51.262;5.488;2022-09-03T09:41:34;2.78;;;1.88;;
26536;SDS011;14204;51.262;5.488;2022-09-03T09:44:00;4.05;;;1.75;;
26536;SDS011;14204;51.262;5.488;2022-09-03T09:46:38;4.47;;;1.85;;
26536;SDS011;14204;51.262;5.488;2022-09-03T09:52:15;3.28;;;1.95;;
26536;SDS011;14204;51.262;5.488;2022-09-03T09:54:42;2.22;;;1.60;;
26536;SDS011;14204;51.262;5.488;2022-09-03T09:57:16;2.90;;;1.90;;
26536;SDS011;14204;51.262;5.488;2022-09-03T09:59:46;2.25;;;1.88;;
26536;SDS011;14204;51.262;5.488;2022-09-03T10:02:16;2.20;;;1.65;;
26536;SDS011;14204;51.262;5.488;2022-09-03T10:04:51;4.45;;;1.92;;
26536;SDS011;14204;51.262;5.488;2022-09-03T10:10:00;5.70;;;1.90;;
26536;SDS011;14204;51.262;5.488;2022-09-03T10:12:54;5.15;;;2.00;;
26536;SDS011;14204;51.262;5.488;2022-09-03T10:26:25;8.18;;;1.80;;
26536;SDS011;14204;51.262;5.488;2022-09-03T10:28:56;2.83;;;1.77;;
26536;SDS011;14204;51.262;5.488;2022-09-03T10:31:33;5.60;;;2.10;;
26536;SDS011;14204;51.262;5.488;2022-09-03T10:34:22;10.88;;;2.55;;
26536;SDS011;14204;51.262;5.488;2022-09-03T10:42:34;3.85;;;2.10;;
26536;SDS011;14204;51.262;5.488;2022-09-03T10:48:15;6.53;;;2.00;;
26536;SDS011;14204;51.262;5.488;2022-09-03T10:50:57;4.50;;;1.92;;
26536;SDS011;14204;51.262;5.488;2022-09-03T10:53:42;4.00;;;1.90;;
26536;SDS011;14204;51.262;5.488;2022-09-03T10:56:31;4.10;;;2.53;;
26536;SDS011;14204;51.262;5.488;2022-09-03T11:02:07;5.45;;;2.08;;
26536;SDS011;14204;51.262;5.488;2022-09-03T11:07:51;3.17;;;1.70;;
26536;SDS011;14204;51.262;5.488;2022-09-03T11:10:39;7.20;;;1.90;;
26536;SDS011;14204;51.262;5.488;2022-09-03T11:13:19;4.07;;;2.10;;
26536;SDS011;14204;51.262;5.488;2022-09-03T11:16:01;4.47;;;2.40;;
26536;SDS011;14204;51.262;5.488;2022-09-03T11:18:35;4.47;;;2.00;;
26536;SDS011;14204;51.262;5.488;2022-09-03T11:21:19;2.70;;;2.50;;
26536;SDS011;14204;51.262;5.488;2022-09-03T11:26:38;7.05;;;2.03;;
26536;SDS011;14204;51.262;5.488;2022-09-03T11:29:13;3.63;;;1.95;;
26536;SDS011;14204;51.262;5.488;2022-09-03T11:31:45;2.00;;;1.90;;
26536;SDS011;14204;51.262;5.488;2022-09-03T11:34:27;2.55;;;2.35;;
26536;SDS011;14204;51.262;5.488;2022-09-03T11:40:05;2.78;;;2.55;;
26536;SDS011;14204;51.262;5.488;2022-09-03T11:42:43;3.50;;;2.23;;
26536;SDS011;14204;51.262;5.488;2022-09-03T11:45:23;4.10;;;2.13;;
26536;SDS011;14204;51.262;5.488;2022-09-03T11:48:00;3.67;;;2.10;;
26536;SDS011;14204;51.262;5.488;2022-09-03T11:50:29;3.25;;;2.20;;
26536;SDS011;14204;51.262;5.488;2022-09-03T11:53:10;2.95;;;2.15;;
26536;SDS011;14204;51.262;5.488;2022-09-03T11:55:52;2.90;;;2.13;;
26536;SDS011;14204;51.262;5.488;2022-09-03T12:01:01;3.75;;;2.92;;
26536;SDS011;14204;51.262;5.488;2022-09-03T12:04:12;5.00;;;3.22;;
26536;SDS011;14204;51.262;5.488;2022-09-03T12:20:38;4.53;;;2.65;;
26536;SDS011;14204;51.262;5.488;2022-09-03T12:23:04;3.17;;;2.70;;
26536;SDS011;14204;51.262;5.488;2022-09-03T12:25:31;5.82;;;2.60;;
26536;SDS011;14204;51.262;5.488;2022-09-03T12:27:57;2.88;;;2.53;;
26536;SDS011;14204;51.262;5.488;2022-09-03T12:30:28;4.32;;;2.30;;
26536;SDS011;14204;51.262;5.488;2022-09-03T12:33:16;4.65;;;2.78;;
26536;SDS011;14204;51.262;5.488;2022-09-03T12:35:42;3.25;;;2.17;;
26536;SDS011;14204;51.262;5.488;2022-09-03T12:38:08;4.75;;;2.47;;
26536;SDS011;14204;51.262;5.488;2022-09-03T12:40:39;2.60;;;2.40;;
26536;SDS011;14204;51.262;5.488;2022-09-03T12:43:11;2.53;;;2.33;;
26536;SDS011;14204;51.262;5.488;2022-09-03T12:45:45;3.55;;;2.53;;
26536;SDS011;14204;51.262;5.488;2022-09-03T12:48:16;5.32;;;3.17;;
26536;SDS011;14204;51.262;5.488;2022-09-03T12:50:44;6.97;;;2.60;;
26536;SDS011;14204;51.262;5.488;2022-09-03T12:53:32;2.42;;;2.22;;
26536;SDS011;14204;51.262;5.488;2022-09-03T12:55:57;7.65;;;2.50;;
26536;SDS011;14204;51.262;5.488;2022-09-03T12:58:35;2.58;;;2.35;;
26536;SDS011;14204;51.262;5.488;2022-09-03T13:01:13;8.60;;;2.50;;
26536;SDS011;14204;51.262;5.488;2022-09-03T13:06:49;3.67;;;2.65;;
26536;SDS011;14204;51.262;5.488;2022-09-03T13:09:22;4.53;;;3.03;;
26536;SDS011;14204;51.262;5.488;2022-09-03T13:11:49;5.85;;;2.85;;
26536;SDS011;14204;51.262;5.488;2022-09-03T13:14:16;3.85;;;2.67;;
26536;SDS011;14204;51.262;5.488;2022-09-03T13:28:02;3.13;;;2.42;;
26536;SDS011;14204;51.262;5.488;2022-09-03T13:30:35;2.63;;;2.20;;
26536;SDS011;14204;51.262;5.488;2022-09-03T13:33:20;5.43;;;2.20;;
26536;SDS011;14204;51.262;5.488;2022-09-03T13:35:52;4.20;;;2.33;;
26536;SDS011;14204;51.262;5.488;2022-09-03T13:44:02;4.20;;;2.63;;
26536;SDS011;14204;51.262;5.488;2022-09-03T13:46:51;4.15;;;2.50;;
26536;SDS011;14204;51.262;5.488;2022-09-03T13:49:41;6.80;;;2.55;;
26536;SDS011;14204;51.262;5.488;2022-09-03T13:55:16;3.13;;;2.10;;
26536;SDS011;14204;51.262;5.488;2022-09-03T13:57:48;3.05;;;2.67;;
26536;SDS011;14204;51.262;5.488;2022-09-03T14:14:01;6.77;;;3.13;;
26536;SDS011;14204;51.262;5.488;2022-09-03T14:22:14;5.05;;;3.63;;
26536;SDS011;14204;51.262;5.488;2022-09-03T14:27:24;3.90;;;2.58;;
26536;SDS011;14204;51.262;5.488;2022-09-03T14:29:59;4.32;;;2.90;;
26536;SDS011;14204;51.262;5.488;2022-09-03T14:35:32;4.63;;;2.80;;
26536;SDS011;14204;51.262;5.488;2022-09-03T14:58:01;3.45;;;2.63;;
26536;SDS011;14204;51.262;5.488;2022-09-03T15:00:35;3.92;;;2.90;;
26536;SDS011;14204;51.262;5.488;2022-09-03T15:03:24;6.75;;;2.80;;
26536;SDS011;14204;51.262;5.488;2022-09-03T15:16:35;5.35;;;2.90;;
26536;SDS011;14204;51.262;5.488;2022-09-03T15:30:31;4.88;;;2.95;;
26536;SDS011;14204;51.262;5.488;2022-09-03T15:33:04;4.60;;;2.70;;
26536;SDS011;14204;51.262;5.488;2022-09-03T15:35:52;5.95;;;2.83;;
26536;SDS011;14204;51.262;5.488;2022-09-03T15:38:43;4.93;;;2.70;;
26536;SDS011;14204;51.262;5.488;2022-09-03T15:43:59;3.95;;;2.70;;
26536;SDS011;14204;51.262;5.488;2022-09-03T15:49:00;4.18;;;2.80;;
26536;SDS011;14204;51.262;5.488;2022-09-03T15:51:40;3.00;;;2.80;;
26536;SDS011;14204;51.262;5.488;2022-09-03T15:54:57;6.55;;;3.30;;
26536;SDS011;14204;51.262;5.488;2022-09-03T16:00:15;5.45;;;2.78;;
26536;SDS011;14204;51.262;5.488;2022-09-03T16:05:20;7.07;;;2.55;;
26536;SDS011;14204;51.262;5.488;2022-09-03T16:10:46;3.03;;;2.80;;
26536;SDS011;14204;51.262;5.488;2022-09-03T16:16:23;5.45;;;3.30;;
26536;SDS011;14204;51.262;5.488;2022-09-03T16:19:00;6.25;;;2.80;;
26536;SDS011;14204;51.262;5.488;2022-09-03T16:21:47;2.97;;;2.70;;
26536;SDS011;14204;51.262;5.488;2022-09-03T16:30:09;5.50;;;2.53;;
26536;SDS011;14204;51.262;5.488;2022-09-03T16:33:01;3.28;;;2.80;;
26536;SDS011;14204;51.262;5.488;2022-09-03T16:51:54;4.70;;;2.75;;
26536;SDS011;14204;51.262;5.488;2022-09-03T16:54:33;2.95;;;2.75;;
26536;SDS011;14204;51.262;5.488;2022-09-03T16:59:58;3.05;;;2.22;;
26536;SDS011;14204;51.262;5.488;2022-09-03T17:11:14;4.65;;;2.63;;
26536;SDS011;14204;51.262;5.488;2022-09-03T17:13:55;2.70;;;2.50;;
26536;SDS011;14204;51.262;5.488;2022-09-03T17:57:20;5.53;;;2.97;;
26536;SDS011;14204;51.262;5.488;2022-09-03T18:00:00;4.45;;;2.65;;
26536;SDS011;14204;51.262;5.488;2022-09-03T18:02:32;4.57;;;2.70;;
26536;SDS011;14204;51.262;5.488;2022-09-03T18:07:48;2.92;;;2.70;;
26536;SDS011;14204;51.262;5.488;2022-09-03T18:10:26;3.10;;;2.85;;
26536;SDS011;14204;51.262;5.488;2022-09-03T18:15:59;4.03;;;2.90;;
26536;SDS011;14204;51.262;5.488;2022-09-03T18:18:41;2.63;;;2.47;;
26536;SDS011;14204;51.262;5.488;2022-09-03T18:21:12;6.63;;;2.85;;
26536;SDS011;14204;51.262;5.488;2022-09-03T18:27:03;3.17;;;2.60;;
26536;SDS011;14204;51.262;5.488;2022-09-03T18:32:38;4.38;;;2.88;;
26536;SDS011;14204;51.262;5.488;2022-09-03T18:35:23;4.78;;;2.88;;
26536;SDS011;14204;51.262;5.488;2022-09-03T18:38:11;4.60;;;2.90;;
26536;SDS011;14204;51.262;5.488;2022-09-03T18:41:07;3.65;;;3.35;;
26536;SDS011;14204;51.262;5.488;2022-09-03T18:53:31;6.53;;;3.33;;
26536;SDS011;14204;51.262;5.488;2022-09-03T19:00:11;5.32;;;2.80;;
26536;SDS011;14204;51.262;5.488;2022-09-03T19:02:32;4.20;;;3.30;;
26536;SDS011;14204;51.262;5.488;2022-09-03T19:08:23;6.55;;;3.53;;
26536;SDS011;14204;51.262;5.488;2022-09-03T19:14:01;6.60;;;3.85;;
26536;SDS011;14204;51.262;5.488;2022-09-03T19:22:54;5.50;;;3.20;;
26536;SDS011;14204;51.262;5.488;2022-09-03T19:25:38;3.75;;;3.45;;
26536;SDS011;14204;51.262;5.488;2022-09-03T19:28:24;6.32;;;3.97;;
26536;SDS011;14204;51.262;5.488;2022-09-03T19:31:27;5.95;;;3.55;;
26536;SDS011;14204;51.262;5.488;2022-09-03T19:37:51;4.95;;;4.10;;
26536;SDS011;14204;51.262;5.488;2022-09-03T19:41:10;6.90;;;4.30;;
26536;SDS011;14204;51.262;5.488;2022-09-03T19:47:01;5.13;;;3.92;;
26536;SDS011;14204;51.262;5.488;2022-09-03T19:53:17;8.40;;;4.30;;
26536;SDS011;14204;51.262;5.488;2022-09-03T19:56:04;7.25;;;4.32;;
26536;SDS011;14204;51.262;5.488;2022-09-03T19:58:54;7.80;;;4.00;;
26536;SDS011;14204;51.262;5.488;2022-09-03T20:01:40;5.78;;;4.38;;
26536;SDS011;14204;51.262;5.488;2022-09-03T20:04:36;6.13;;;4.13;;
26536;SDS011;14204;51.262;5.488;2022-09-03T20:07:23;6.50;;;4.38;;
26536;SDS011;14204;51.262;5.488;2022-09-03T20:10:09;5.85;;;4.07;;
26536;SDS011;14204;51.262;5.488;2022-09-03T20:29:53;4.20;;;3.88;;
26536;SDS011;14204;51.262;5.488;2022-09-03T20:35:21;7.93;;;3.90;;
26536;SDS011;14204;51.262;5.488;2022-09-03T20:44:07;6.15;;;4.07;;
26536;SDS011;14204;51.262;5.488;2022-09-03T20:47:28;10.35;;;4.63;;
26536;SDS011;14204;51.262;5.488;2022-09-03T20:53:14;5.45;;;4.88;;
26536;SDS011;14204;51.262;5.488;2022-09-03T20:55:50;6.82;;;4.85;;
26536;SDS011;14204;51.262;5.488;2022-09-03T21:01:19;7.90;;;4.80;;
26536;SDS011;14204;51.262;5.488;2022-09-03T21:10:17;10.55;;;4.47;;
26536;SDS011;14204;51.262;5.488;2022-09-03T21:18:33;8.00;;;4.93;;
26536;SDS011;14204;51.262;5.488;2022-09-03T21:21:22;7.93;;;5.53;;
26536;SDS011;14204;51.262;5.488;2022-09-03T21:26:36;8.07;;;5.90;;
26536;SDS011;14204;51.262;5.488;2022-09-03T21:34:39;8.05;;;5.72;;
26536;SDS011;14204;51.262;5.488;2022-09-03T21:37:27;11.88;;;5.63;;
26536;SDS011;14204;51.262;5.488;2022-09-03T21:39:59;8.70;;;5.75;;
26536;SDS011;14204;51.262;5.488;2022-09-03T21:42:39;14.38;;;6.05;;
26536;SDS011;14204;51.262;5.488;2022-09-03T21:47:42;8.98;;;5.88;;
26536;SDS011;14204;51.262;5.488;2022-09-03T21:58:00;7.05;;;5.55;;
26536;SDS011;14204;51.262;5.488;2022-09-03T22:00:27;5.85;;;5.00;;
26536;SDS011;14204;51.262;5.488;2022-09-03T22:02:56;7.53;;;5.60;;
26536;SDS011;14204;51.262;5.488;2022-09-03T22:05:23;8.90;;;6.00;;
26536;SDS011;14204;51.262;5.488;2022-09-03T22:13:25;7.38;;;6.20;;
26536;SDS011;14204;51.262;5.488;2022-09-03T22:15:54;13.73;;;6.43;;
26536;SDS011;14204;51.262;5.488;2022-09-03T22:18:28;9.30;;;6.50;;
26536;SDS011;14204;51.262;5.488;2022-09-03T22:23:48;9.73;;;6.30;;
26536;SDS011;14204;51.262;5.488;2022-09-03T22:26:49;7.05;;;5.88;;
26536;SDS011;14204;51.262;5.488;2022-09-03T22:35:24;10.43;;;6.70;;
26536;SDS011;14204;51.262;5.488;2022-09-03T22:41:14;8.13;;;6.22;;
26536;SDS011;14204;51.262;5.488;2022-09-03T22:44:07;9.60;;;5.72;;
26536;SDS011;14204;51.262;5.488;2022-09-03T22:47:01;7.63;;;6.55;;
26536;SDS011;14204;51.262;5.488;2022-09-03T22:57:43;8.93;;;7.28;;
26536;SDS011;14204;51.262;5.488;2022-09-03T23:00:14;7.97;;;7.25;;
26536;SDS011;14204;51.262;5.488;2022-09-03T23:02:41;8.60;;;7.40;;
26536;SDS011;14204;51.262;5.488;2022-09-03T23:08:07;9.88;;;6.32;;